sensor_id;sensor_type;location;lat;lon;timestamp;P1;durP1;ratioP1;P2;durP2;ratioP2
47772;SDS011;33534;51.028;13.716;2024-02-28T00:01:38;176.43;;;122.05;;
47772;SDS011;33534;51.028;13.716;2024-02-28T00:04:12;173.02;;;118.72;;
47772;SDS011;33534;51.028;13.716;2024-02-28T00:06:38;173.85;;;120.25;;
47772;SDS011;33534;51.028;13.716;2024-02-28T00:09:04;167.73;;;117.68;;
47772;SDS011;33534;51.028;13.716;2024-02-28T00:11:30;171.00;;;117.05;;
47772;SDS011;33534;51.028;13.716;2024-02-28T00:13:55;169.85;;;117.20;;
47772;SDS011;33534;51.028;13.716;2024-02-28T00:16:21;163.70;;;114.40;;
47772;SDS011;33534;51.028;13.716;2024-02-28T00:18:47;167.05;;;116.10;;
47772;SDS011;33534;51.028;13.716;2024-02-28T00:21:12;169.32;;;117.85;;
47772;SDS011;33534;51.028;13.716;2024-02-28T00:23:38;166.38;;;115.63;;
47772;SDS011;33534;51.028;13.716;2024-02-28T00:26:03;162.82;;;114.55;;
47772;SDS011;33534;51.028;13.716;2024-02-28T00:28:29;158.55;;;110.65;;
47772;SDS011;33534;51.028;13.716;2024-02-28T00:30:54;164.52;;;113.28;;
47772;SDS011;33534;51.028;13.716;2024-02-28T00:33:20;165.50;;;112.45;;
47772;SDS011;33534;51.028;13.716;2024-02-28T00:35:46;163.50;;;113.28;;
47772;SDS011;33534;51.028;13.716;2024-02-28T00:38:11;156.93;;;109.15;;
47772;SDS011;33534;51.028;13.716;2024-02-28T00:40:37;159.20;;;110.15;;
47772;SDS011;33534;51.028;13.716;2024-02-28T00:43:03;161.45;;;111.82;;
47772;SDS011;33534;51.028;13.716;2024-02-28T00:45:28;159.25;;;107.68;;
47772;SDS011;33534;51.028;13.716;2024-02-28T00:47:54;152.38;;;105.22;;
47772;SDS011;33534;51.028;13.716;2024-02-28T00:50:20;151.00;;;104.03;;
47772;SDS011;33534;51.028;13.716;2024-02-28T00:52:46;151.43;;;105.28;;
47772;SDS011;33534;51.028;13.716;2024-02-28T00:55:11;149.55;;;103.88;;
47772;SDS011;33534;51.028;13.716;2024-02-28T00:57:37;158.30;;;105.85;;
47772;SDS011;33534;51.028;13.716;2024-02-28T01:00:02;149.90;;;101.85;;
47772;SDS011;33534;51.028;13.716;2024-02-28T01:02:30;152.55;;;103.53;;
47772;SDS011;33534;51.028;13.716;2024-02-28T01:04:57;143.90;;;100.22;;
47772;SDS011;33534;51.028;13.716;2024-02-28T01:07:22;149.50;;;102.13;;
47772;SDS011;33534;51.028;13.716;2024-02-28T01:09:48;153.48;;;101.63;;
47772;SDS011;33534;51.028;13.716;2024-02-28T01:12:13;141.38;;;98.40;;
47772;SDS011;33534;51.028;13.716;2024-02-28T01:14:39;149.30;;;99.85;;
47772;SDS011;33534;51.028;13.716;2024-02-28T01:17:05;143.60;;;99.10;;
47772;SDS011;33534;51.028;13.716;2024-02-28T01:19:30;150.20;;;100.25;;
47772;SDS011;33534;51.028;13.716;2024-02-28T01:21:56;146.00;;;99.97;;
47772;SDS011;33534;51.028;13.716;2024-02-28T01:24:22;135.75;;;95.38;;
47772;SDS011;33534;51.028;13.716;2024-02-28T01:26:47;140.75;;;96.50;;
47772;SDS011;33534;51.028;13.716;2024-02-28T01:29:13;145.20;;;98.03;;
47772;SDS011;33534;51.028;13.716;2024-02-28T01:31:39;138.70;;;94.53;;
47772;SDS011;33534;51.028;13.716;2024-02-28T01:34:05;140.90;;;95.72;;
47772;SDS011;33534;51.028;13.716;2024-02-28T01:36:30;133.77;;;93.05;;
47772;SDS011;33534;51.028;13.716;2024-02-28T01:38:56;141.23;;;97.18;;
47772;SDS011;33534;51.028;13.716;2024-02-28T01:41:21;132.63;;;90.57;;
47772;SDS011;33534;51.028;13.716;2024-02-28T01:43:47;132.20;;;90.72;;
47772;SDS011;33534;51.028;13.716;2024-02-28T01:48:44;130.40;;;88.80;;
47772;SDS011;33534;51.028;13.716;2024-02-28T01:51:10;129.82;;;89.07;;
47772;SDS011;33534;51.028;13.716;2024-02-28T01:53:36;130.18;;;90.30;;
47772;SDS011;33534;51.028;13.716;2024-02-28T01:56:01;126.35;;;88.70;;
47772;SDS011;33534;51.028;13.716;2024-02-28T01:58:27;124.10;;;87.20;;
47772;SDS011;33534;51.028;13.716;2024-02-28T02:00:53;128.73;;;87.10;;
47772;SDS011;33534;51.028;13.716;2024-02-28T02:03:19;128.50;;;89.00;;
47772;SDS011;33534;51.028;13.716;2024-02-28T02:05:45;128.15;;;87.05;;
47772;SDS011;33534;51.028;13.716;2024-02-28T02:08:11;126.85;;;86.30;;
47772;SDS011;33534;51.028;13.716;2024-02-28T02:10:36;123.45;;;84.25;;
47772;SDS011;33534;51.028;13.716;2024-02-28T02:13:05;118.05;;;83.57;;
47772;SDS011;33534;51.028;13.716;2024-02-28T02:15:31;120.43;;;84.68;;
47772;SDS011;33534;51.028;13.716;2024-02-28T02:17:57;120.20;;;82.35;;
47772;SDS011;33534;51.028;13.716;2024-02-28T02:20:23;117.18;;;81.13;;
47772;SDS011;33534;51.028;13.716;2024-02-28T02:22:51;117.72;;;81.97;;
47772;SDS011;33534;51.028;13.716;2024-02-28T02:25:18;118.88;;;83.10;;
47772;SDS011;33534;51.028;13.716;2024-02-28T02:27:43;118.93;;;81.55;;
47772;SDS011;33534;51.028;13.716;2024-02-28T02:30:09;118.75;;;81.78;;
47772;SDS011;33534;51.028;13.716;2024-02-28T02:32:35;119.60;;;79.90;;
47772;SDS011;33534;51.028;13.716;2024-02-28T02:35:01;117.50;;;79.68;;
47772;SDS011;33534;51.028;13.716;2024-02-28T02:37:27;116.15;;;78.70;;
47772;SDS011;33534;51.028;13.716;2024-02-28T02:39:52;117.55;;;80.22;;
47772;SDS011;33534;51.028;13.716;2024-02-28T02:42:18;117.18;;;78.38;;
47772;SDS011;33534;51.028;13.716;2024-02-28T02:44:44;111.38;;;78.35;;
47772;SDS011;33534;51.028;13.716;2024-02-28T02:47:09;112.18;;;78.90;;
47772;SDS011;33534;51.028;13.716;2024-02-28T02:49:35;110.35;;;75.22;;
47772;SDS011;33534;51.028;13.716;2024-02-28T02:52:01;108.88;;;74.75;;
47772;SDS011;33534;51.028;13.716;2024-02-28T02:54:26;108.47;;;74.88;;
47772;SDS011;33534;51.028;13.716;2024-02-28T02:56:52;107.05;;;72.97;;
47772;SDS011;33534;51.028;13.716;2024-02-28T02:59:17;109.10;;;73.10;;
47772;SDS011;33534;51.028;13.716;2024-02-28T03:01:46;107.57;;;75.07;;
47772;SDS011;33534;51.028;13.716;2024-02-28T03:04:12;105.18;;;73.93;;
47772;SDS011;33534;51.028;13.716;2024-02-28T03:06:38;106.03;;;72.15;;
47772;SDS011;33534;51.028;13.716;2024-02-28T03:09:03;101.50;;;69.95;;
47772;SDS011;33534;51.028;13.716;2024-02-28T03:11:29;99.05;;;70.53;;
47772;SDS011;33534;51.028;13.716;2024-02-28T03:13:55;103.47;;;70.45;;
47772;SDS011;33534;51.028;13.716;2024-02-28T03:16:20;98.90;;;69.22;;
47772;SDS011;33534;51.028;13.716;2024-02-28T03:18:46;101.55;;;70.15;;
47772;SDS011;33534;51.028;13.716;2024-02-28T03:21:11;102.45;;;70.03;;
47772;SDS011;33534;51.028;13.716;2024-02-28T03:23:37;99.20;;;68.15;;
47772;SDS011;33534;51.028;13.716;2024-02-28T03:26:03;95.32;;;66.65;;
47772;SDS011;33534;51.028;13.716;2024-02-28T03:28:28;99.65;;;67.28;;
47772;SDS011;33534;51.028;13.716;2024-02-28T03:30:54;96.95;;;65.53;;
47772;SDS011;33534;51.028;13.716;2024-02-28T03:33:20;94.80;;;65.72;;
47772;SDS011;33534;51.028;13.716;2024-02-28T03:35:45;96.15;;;65.80;;
47772;SDS011;33534;51.028;13.716;2024-02-28T03:38:11;98.10;;;67.13;;
47772;SDS011;33534;51.028;13.716;2024-02-28T03:40:36;92.30;;;63.53;;
47772;SDS011;33534;51.028;13.716;2024-02-28T03:43:02;92.95;;;63.33;;
47772;SDS011;33534;51.028;13.716;2024-02-28T03:45:28;91.90;;;64.35;;
47772;SDS011;33534;51.028;13.716;2024-02-28T03:47:56;93.53;;;62.30;;
47772;SDS011;33534;51.028;13.716;2024-02-28T03:50:22;88.88;;;62.50;;
47772;SDS011;33534;51.028;13.716;2024-02-28T03:52:48;95.10;;;63.75;;
47772;SDS011;33534;51.028;13.716;2024-02-28T03:55:13;89.95;;;60.85;;
47772;SDS011;33534;51.028;13.716;2024-02-28T03:57:40;90.72;;;62.90;;
47772;SDS011;33534;51.028;13.716;2024-02-28T04:00:06;85.65;;;60.33;;
47772;SDS011;33534;51.028;13.716;2024-02-28T04:02:33;88.95;;;61.65;;
47772;SDS011;33534;51.028;13.716;2024-02-28T04:04:59;86.97;;;59.00;;
47772;SDS011;33534;51.028;13.716;2024-02-28T04:07:25;82.47;;;57.83;;
47772;SDS011;33534;51.028;13.716;2024-02-28T04:09:50;90.93;;;61.60;;
47772;SDS011;33534;51.028;13.716;2024-02-28T04:12:16;84.10;;;58.75;;
47772;SDS011;33534;51.028;13.716;2024-02-28T04:14:41;86.90;;;59.75;;
47772;SDS011;33534;51.028;13.716;2024-02-28T04:17:07;80.28;;;55.53;;
47772;SDS011;33534;51.028;13.716;2024-02-28T04:19:33;82.60;;;56.90;;
47772;SDS011;33534;51.028;13.716;2024-02-28T04:22:02;87.65;;;58.13;;
47772;SDS011;33534;51.028;13.716;2024-02-28T04:24:28;83.22;;;56.92;;
47772;SDS011;33534;51.028;13.716;2024-02-28T04:26:53;79.53;;;53.60;;
47772;SDS011;33534;51.028;13.716;2024-02-28T04:29:19;81.20;;;55.38;;
47772;SDS011;33534;51.028;13.716;2024-02-28T04:31:45;82.50;;;55.47;;
47772;SDS011;33534;51.028;13.716;2024-02-28T04:34:10;79.18;;;54.17;;
47772;SDS011;33534;51.028;13.716;2024-02-28T04:36:36;77.63;;;53.67;;
47772;SDS011;33534;51.028;13.716;2024-02-28T04:39:01;79.90;;;54.97;;
47772;SDS011;33534;51.028;13.716;2024-02-28T04:41:29;80.35;;;54.90;;
47772;SDS011;33534;51.028;13.716;2024-02-28T04:43:54;75.80;;;51.60;;
47772;SDS011;33534;51.028;13.716;2024-02-28T04:46:20;78.20;;;53.10;;
47772;SDS011;33534;51.028;13.716;2024-02-28T04:48:46;74.95;;;52.45;;
47772;SDS011;33534;51.028;13.716;2024-02-28T04:51:14;76.45;;;50.83;;
47772;SDS011;33534;51.028;13.716;2024-02-28T04:53:43;78.38;;;51.42;;
47772;SDS011;33534;51.028;13.716;2024-02-28T04:56:09;75.22;;;51.25;;
47772;SDS011;33534;51.028;13.716;2024-02-28T04:58:35;69.97;;;48.95;;
47772;SDS011;33534;51.028;13.716;2024-02-28T05:01:01;69.00;;;49.35;;
47772;SDS011;33534;51.028;13.716;2024-02-28T05:03:28;71.55;;;49.85;;
47772;SDS011;33534;51.028;13.716;2024-02-28T05:05:53;72.32;;;49.13;;
47772;SDS011;33534;51.028;13.716;2024-02-28T05:08:19;70.70;;;47.92;;
47772;SDS011;33534;51.028;13.716;2024-02-28T05:10:45;67.30;;;46.22;;
47772;SDS011;33534;51.028;13.716;2024-02-28T05:13:11;70.50;;;48.35;;
47772;SDS011;33534;51.028;13.716;2024-02-28T05:15:37;69.53;;;48.30;;
47772;SDS011;33534;51.028;13.716;2024-02-28T05:18:03;70.72;;;47.22;;
47772;SDS011;33534;51.028;13.716;2024-02-28T05:20:28;66.50;;;45.83;;
47772;SDS011;33534;51.028;13.716;2024-02-28T05:22:54;69.50;;;46.58;;
47772;SDS011;33534;51.028;13.716;2024-02-28T05:25:20;67.97;;;46.00;;
47772;SDS011;33534;51.028;13.716;2024-02-28T05:27:45;69.38;;;43.95;;
47772;SDS011;33534;51.028;13.716;2024-02-28T05:30:11;66.68;;;44.97;;
47772;SDS011;33534;51.028;13.716;2024-02-28T05:32:37;90.95;;;45.15;;
47772;SDS011;33534;51.028;13.716;2024-02-28T05:35:02;66.18;;;44.70;;
47772;SDS011;33534;51.028;13.716;2024-02-28T05:37:28;66.30;;;42.72;;
47772;SDS011;33534;51.028;13.716;2024-02-28T05:39:54;64.40;;;43.70;;
47772;SDS011;33534;51.028;13.716;2024-02-28T05:42:19;62.88;;;41.75;;
47772;SDS011;33534;51.028;13.716;2024-02-28T05:44:47;60.47;;;41.28;;
47772;SDS011;33534;51.028;13.716;2024-02-28T05:47:16;59.28;;;40.05;;
47772;SDS011;33534;51.028;13.716;2024-02-28T05:49:42;62.22;;;41.03;;
47772;SDS011;33534;51.028;13.716;2024-02-28T05:52:07;59.80;;;40.70;;
47772;SDS011;33534;51.028;13.716;2024-02-28T05:54:34;58.20;;;38.53;;
47772;SDS011;33534;51.028;13.716;2024-02-28T05:57:00;66.05;;;42.58;;
47772;SDS011;33534;51.028;13.716;2024-02-28T05:59:25;72.93;;;40.72;;
47772;SDS011;33534;51.028;13.716;2024-02-28T06:01:51;59.72;;;39.33;;
47772;SDS011;33534;51.028;13.716;2024-02-28T06:04:17;59.30;;;37.13;;
47772;SDS011;33534;51.028;13.716;2024-02-28T06:06:42;60.83;;;37.60;;
47772;SDS011;33534;51.028;13.716;2024-02-28T06:09:08;61.72;;;37.75;;
47772;SDS011;33534;51.028;13.716;2024-02-28T06:11:33;66.97;;;38.60;;
47772;SDS011;33534;51.028;13.716;2024-02-28T06:13:59;63.67;;;39.30;;
47772;SDS011;33534;51.028;13.716;2024-02-28T06:16:25;62.58;;;39.45;;
47772;SDS011;33534;51.028;13.716;2024-02-28T06:18:50;63.25;;;38.85;;
47772;SDS011;33534;51.028;13.716;2024-02-28T06:21:16;60.08;;;37.75;;
47772;SDS011;33534;51.028;13.716;2024-02-28T06:23:41;55.75;;;36.70;;
47772;SDS011;33534;51.028;13.716;2024-02-28T06:26:07;60.08;;;37.85;;
47772;SDS011;33534;51.028;13.716;2024-02-28T06:28:40;60.17;;;37.53;;
47772;SDS011;33534;51.028;13.716;2024-02-28T06:31:11;61.83;;;37.40;;
47772;SDS011;33534;51.028;13.716;2024-02-28T06:33:39;67.68;;;36.97;;
47772;SDS011;33534;51.028;13.716;2024-02-28T06:36:04;71.05;;;37.05;;
47772;SDS011;33534;51.028;13.716;2024-02-28T06:38:30;60.08;;;35.47;;
47772;SDS011;33534;51.028;13.716;2024-02-28T06:40:56;65.00;;;35.30;;
47772;SDS011;33534;51.028;13.716;2024-02-28T06:43:22;60.38;;;34.63;;
47772;SDS011;33534;51.028;13.716;2024-02-28T06:45:48;54.60;;;34.42;;
47772;SDS011;33534;51.028;13.716;2024-02-28T06:48:13;59.35;;;34.72;;
47772;SDS011;33534;51.028;13.716;2024-02-28T06:50:39;57.20;;;35.20;;
47772;SDS011;33534;51.028;13.716;2024-02-28T06:53:04;52.20;;;33.47;;
47772;SDS011;33534;51.028;13.716;2024-02-28T06:55:30;50.42;;;33.92;;
47772;SDS011;33534;51.028;13.716;2024-02-28T06:57:56;57.95;;;35.35;;
47772;SDS011;33534;51.028;13.716;2024-02-28T07:00:22;55.88;;;33.38;;
47772;SDS011;33534;51.028;13.716;2024-02-28T07:02:47;57.10;;;35.72;;
47772;SDS011;33534;51.028;13.716;2024-02-28T07:05:13;57.83;;;34.08;;
47772;SDS011;33534;51.028;13.716;2024-02-28T07:07:38;54.30;;;32.67;;
47772;SDS011;33534;51.028;13.716;2024-02-28T07:10:04;55.92;;;31.80;;
47772;SDS011;33534;51.028;13.716;2024-02-28T07:12:30;50.22;;;31.75;;
47772;SDS011;33534;51.028;13.716;2024-02-28T07:14:56;57.47;;;31.58;;
47772;SDS011;33534;51.028;13.716;2024-02-28T07:17:22;56.58;;;31.77;;
47772;SDS011;33534;51.028;13.716;2024-02-28T07:19:48;49.63;;;29.95;;
47772;SDS011;33534;51.028;13.716;2024-02-28T07:22:13;50.30;;;30.80;;
47772;SDS011;33534;51.028;13.716;2024-02-28T07:24:39;48.22;;;30.13;;
47772;SDS011;33534;51.028;13.716;2024-02-28T07:27:04;49.85;;;29.98;;
47772;SDS011;33534;51.028;13.716;2024-02-28T07:29:30;47.28;;;29.30;;
47772;SDS011;33534;51.028;13.716;2024-02-28T07:31:56;51.38;;;30.45;;
47772;SDS011;33534;51.028;13.716;2024-02-28T07:34:21;41.92;;;27.45;;
47772;SDS011;33534;51.028;13.716;2024-02-28T07:36:47;44.58;;;28.48;;
47772;SDS011;33534;51.028;13.716;2024-02-28T07:39:13;46.00;;;28.25;;
47772;SDS011;33534;51.028;13.716;2024-02-28T07:41:39;50.05;;;27.77;;
47772;SDS011;33534;51.028;13.716;2024-02-28T07:44:06;44.83;;;27.70;;
47772;SDS011;33534;51.028;13.716;2024-02-28T07:46:32;42.50;;;27.58;;
47772;SDS011;33534;51.028;13.716;2024-02-28T07:48:58;47.70;;;28.25;;
47772;SDS011;33534;51.028;13.716;2024-02-28T07:51:25;38.67;;;26.42;;
47772;SDS011;33534;51.028;13.716;2024-02-28T07:53:50;40.60;;;26.65;;
47772;SDS011;33534;51.028;13.716;2024-02-28T07:56:16;43.97;;;27.17;;
47772;SDS011;33534;51.028;13.716;2024-02-28T07:58:43;44.97;;;27.70;;
47772;SDS011;33534;51.028;13.716;2024-02-28T08:01:10;44.35;;;27.20;;
47772;SDS011;33534;51.028;13.716;2024-02-28T08:03:35;41.00;;;26.45;;
47772;SDS011;33534;51.028;13.716;2024-02-28T08:06:01;42.95;;;25.80;;
47772;SDS011;33534;51.028;13.716;2024-02-28T08:08:26;40.05;;;27.08;;
47772;SDS011;33534;51.028;13.716;2024-02-28T08:10:52;43.38;;;27.30;;
47772;SDS011;33534;51.028;13.716;2024-02-28T08:13:18;42.97;;;25.15;;
47772;SDS011;33534;51.028;13.716;2024-02-28T08:15:44;35.42;;;23.65;;
47772;SDS011;33534;51.028;13.716;2024-02-28T08:18:09;40.45;;;25.33;;
47772;SDS011;33534;51.028;13.716;2024-02-28T08:20:38;40.72;;;25.02;;
47772;SDS011;33534;51.028;13.716;2024-02-28T08:23:04;39.63;;;25.15;;
47772;SDS011;33534;51.028;13.716;2024-02-28T08:25:30;38.35;;;23.55;;
47772;SDS011;33534;51.028;13.716;2024-02-28T08:27:56;39.60;;;23.63;;
47772;SDS011;33534;51.028;13.716;2024-02-28T08:30:22;41.85;;;24.42;;
47772;SDS011;33534;51.028;13.716;2024-02-28T08:32:47;41.40;;;25.02;;
47772;SDS011;33534;51.028;13.716;2024-02-28T08:35:13;39.10;;;24.30;;
47772;SDS011;33534;51.028;13.716;2024-02-28T08:37:39;36.40;;;22.70;;
47772;SDS011;33534;51.028;13.716;2024-02-28T08:40:05;36.20;;;23.70;;
47772;SDS011;33534;51.028;13.716;2024-02-28T08:42:31;37.35;;;22.38;;
47772;SDS011;33534;51.028;13.716;2024-02-28T08:44:57;35.60;;;23.38;;
47772;SDS011;33534;51.028;13.716;2024-02-28T08:47:24;34.20;;;22.23;;
47772;SDS011;33534;51.028;13.716;2024-02-28T08:49:51;32.85;;;22.58;;
47772;SDS011;33534;51.028;13.716;2024-02-28T08:52:17;36.15;;;22.88;;
47772;SDS011;33534;51.028;13.716;2024-02-28T08:54:43;30.70;;;21.02;;
47772;SDS011;33534;51.028;13.716;2024-02-28T08:57:08;36.33;;;22.77;;
47772;SDS011;33534;51.028;13.716;2024-02-28T08:59:34;31.38;;;21.40;;
47772;SDS011;33534;51.028;13.716;2024-02-28T09:02:00;30.45;;;21.40;;
47772;SDS011;33534;51.028;13.716;2024-02-28T09:04:25;34.40;;;22.65;;
47772;SDS011;33534;51.028;13.716;2024-02-28T09:06:51;36.60;;;22.77;;
47772;SDS011;33534;51.028;13.716;2024-02-28T09:09:18;34.58;;;21.83;;
47772;SDS011;33534;51.028;13.716;2024-02-28T09:11:44;31.83;;;21.40;;
47772;SDS011;33534;51.028;13.716;2024-02-28T09:14:09;33.38;;;22.15;;
47772;SDS011;33534;51.028;13.716;2024-02-28T09:16:35;29.33;;;20.38;;
47772;SDS011;33534;51.028;13.716;2024-02-28T09:19:00;30.52;;;20.05;;
47772;SDS011;33534;51.028;13.716;2024-02-28T09:21:27;29.98;;;20.83;;
47772;SDS011;33534;51.028;13.716;2024-02-28T09:23:53;30.98;;;19.77;;
47772;SDS011;33534;51.028;13.716;2024-02-28T09:26:18;31.80;;;20.33;;
47772;SDS011;33534;51.028;13.716;2024-02-28T09:28:44;31.58;;;20.08;;
47772;SDS011;33534;51.028;13.716;2024-02-28T09:31:10;32.85;;;19.33;;
47772;SDS011;33534;51.028;13.716;2024-02-28T09:33:36;27.90;;;19.30;;
47772;SDS011;33534;51.028;13.716;2024-02-28T09:36:03;28.23;;;19.75;;
47772;SDS011;33534;51.028;13.716;2024-02-28T09:38:29;31.85;;;20.55;;
47772;SDS011;33534;51.028;13.716;2024-02-28T09:40:57;27.58;;;18.30;;
47772;SDS011;33534;51.028;13.716;2024-02-28T09:43:30;29.40;;;19.08;;
47772;SDS011;33534;51.028;13.716;2024-02-28T09:45:59;28.33;;;19.23;;
47772;SDS011;33534;51.028;13.716;2024-02-28T09:48:28;27.30;;;18.88;;
47772;SDS011;33534;51.028;13.716;2024-02-28T09:50:54;32.92;;;19.27;;
47772;SDS011;33534;51.028;13.716;2024-02-28T09:53:21;29.25;;;19.13;;
47772;SDS011;33534;51.028;13.716;2024-02-28T09:55:48;27.58;;;18.40;;
47772;SDS011;33534;51.028;13.716;2024-02-28T09:58:15;27.23;;;18.05;;
47772;SDS011;33534;51.028;13.716;2024-02-28T10:00:41;24.10;;;16.65;;
47772;SDS011;33534;51.028;13.716;2024-02-28T10:03:09;29.70;;;18.55;;
47772;SDS011;33534;51.028;13.716;2024-02-28T10:05:38;25.38;;;17.60;;
47772;SDS011;33534;51.028;13.716;2024-02-28T10:08:04;25.65;;;17.30;;
47772;SDS011;33534;51.028;13.716;2024-02-28T10:10:31;30.25;;;18.58;;
47772;SDS011;33534;51.028;13.716;2024-02-28T10:12:57;24.73;;;16.73;;
47772;SDS011;33534;51.028;13.716;2024-02-28T10:15:26;25.25;;;16.60;;
47772;SDS011;33534;51.028;13.716;2024-02-28T10:17:51;24.25;;;16.50;;
47772;SDS011;33534;51.028;13.716;2024-02-28T10:20:17;25.60;;;17.50;;
47772;SDS011;33534;51.028;13.716;2024-02-28T10:22:43;26.25;;;17.45;;
47772;SDS011;33534;51.028;13.716;2024-02-28T10:25:08;21.10;;;15.23;;
47772;SDS011;33534;51.028;13.716;2024-02-28T10:27:34;27.38;;;18.08;;
47772;SDS011;33534;51.028;13.716;2024-02-28T10:30:01;24.38;;;16.52;;
47772;SDS011;33534;51.028;13.716;2024-02-28T10:32:30;23.73;;;15.95;;
47772;SDS011;33534;51.028;13.716;2024-02-28T10:34:58;23.00;;;15.80;;
47772;SDS011;33534;51.028;13.716;2024-02-28T10:37:25;23.85;;;16.08;;
47772;SDS011;33534;51.028;13.716;2024-02-28T10:39:53;25.40;;;16.70;;
47772;SDS011;33534;51.028;13.716;2024-02-28T10:42:20;22.45;;;15.50;;
47772;SDS011;33534;51.028;13.716;2024-02-28T10:44:48;22.48;;;15.43;;
47772;SDS011;33534;51.028;13.716;2024-02-28T10:47:17;19.73;;;14.07;;
47772;SDS011;33534;51.028;13.716;2024-02-28T10:49:43;21.73;;;15.10;;
47772;SDS011;33534;51.028;13.716;2024-02-28T10:52:10;25.45;;;15.48;;
47772;SDS011;33534;51.028;13.716;2024-02-28T10:54:38;23.48;;;15.68;;
47772;SDS011;33534;51.028;13.716;2024-02-28T10:57:07;23.83;;;15.32;;
47772;SDS011;33534;51.028;13.716;2024-02-28T10:59:34;23.27;;;15.43;;
47772;SDS011;33534;51.028;13.716;2024-02-28T11:02:02;21.50;;;14.55;;
47772;SDS011;33534;51.028;13.716;2024-02-28T11:04:28;21.42;;;13.73;;
47772;SDS011;33534;51.028;13.716;2024-02-28T11:06:55;19.77;;;14.00;;
47772;SDS011;33534;51.028;13.716;2024-02-28T11:09:21;21.10;;;14.50;;
47772;SDS011;33534;51.028;13.716;2024-02-28T11:11:48;19.15;;;13.50;;
47772;SDS011;33534;51.028;13.716;2024-02-28T11:14:15;22.02;;;14.48;;
47772;SDS011;33534;51.028;13.716;2024-02-28T11:16:41;22.77;;;13.77;;
47772;SDS011;33534;51.028;13.716;2024-02-28T11:19:18;23.60;;;14.00;;
47772;SDS011;33534;51.028;13.716;2024-02-28T11:21:54;20.67;;;13.63;;
47772;SDS011;33534;51.028;13.716;2024-02-28T11:24:23;23.25;;;13.82;;
47772;SDS011;33534;51.028;13.716;2024-02-28T11:26:50;18.80;;;13.45;;
47772;SDS011;33534;51.028;13.716;2024-02-28T11:29:22;19.70;;;13.90;;
47772;SDS011;33534;51.028;13.716;2024-02-28T11:31:49;22.23;;;15.32;;
47772;SDS011;33534;51.028;13.716;2024-02-28T11:34:15;21.92;;;13.95;;
47772;SDS011;33534;51.028;13.716;2024-02-28T11:36:41;19.85;;;13.30;;
47772;SDS011;33534;51.028;13.716;2024-02-28T11:39:07;25.35;;;14.38;;
47772;SDS011;33534;51.028;13.716;2024-02-28T11:41:32;17.08;;;11.73;;
47772;SDS011;33534;51.028;13.716;2024-02-28T11:43:58;20.80;;;12.60;;
47772;SDS011;33534;51.028;13.716;2024-02-28T11:46:23;18.13;;;12.60;;
47772;SDS011;33534;51.028;13.716;2024-02-28T11:48:49;17.52;;;12.15;;
47772;SDS011;33534;51.028;13.716;2024-02-28T11:51:15;16.42;;;11.85;;
47772;SDS011;33534;51.028;13.716;2024-02-28T11:53:41;18.13;;;12.13;;
47772;SDS011;33534;51.028;13.716;2024-02-28T11:56:07;17.42;;;12.00;;
47772;SDS011;33534;51.028;13.716;2024-02-28T11:58:33;17.67;;;12.25;;
47772;SDS011;33534;51.028;13.716;2024-02-28T12:00:58;19.75;;;12.43;;
47772;SDS011;33534;51.028;13.716;2024-02-28T12:03:24;16.65;;;11.65;;
47772;SDS011;33534;51.028;13.716;2024-02-28T12:05:51;16.85;;;11.90;;
47772;SDS011;33534;51.028;13.716;2024-02-28T12:08:17;16.88;;;11.35;;
47772;SDS011;33534;51.028;13.716;2024-02-28T12:10:44;19.20;;;11.55;;
47772;SDS011;33534;51.028;13.716;2024-02-28T12:13:11;16.63;;;11.55;;
47772;SDS011;33534;51.028;13.716;2024-02-28T12:15:39;15.32;;;11.10;;
47772;SDS011;33534;51.028;13.716;2024-02-28T12:18:09;14.93;;;11.07;;
47772;SDS011;33534;51.028;13.716;2024-02-28T12:20:36;16.88;;;11.60;;
47772;SDS011;33534;51.028;13.716;2024-02-28T12:23:05;18.08;;;11.90;;
47772;SDS011;33534;51.028;13.716;2024-02-28T12:25:31;16.73;;;10.65;;
47772;SDS011;33534;51.028;13.716;2024-02-28T12:27:56;15.93;;;11.00;;
47772;SDS011;33534;51.028;13.716;2024-02-28T12:30:22;14.68;;;10.55;;
47772;SDS011;33534;51.028;13.716;2024-02-28T12:32:48;16.23;;;10.90;;
47772;SDS011;33534;51.028;13.716;2024-02-28T12:35:13;16.38;;;11.13;;
47772;SDS011;33534;51.028;13.716;2024-02-28T12:37:39;15.13;;;10.65;;
47772;SDS011;33534;51.028;13.716;2024-02-28T12:40:06;14.80;;;10.02;;
47772;SDS011;33534;51.028;13.716;2024-02-28T12:42:33;17.38;;;10.85;;
47772;SDS011;33534;51.028;13.716;2024-02-28T12:44:59;15.02;;;10.52;;
47772;SDS011;33534;51.028;13.716;2024-02-28T12:47:25;13.20;;;9.50;;
47772;SDS011;33534;51.028;13.716;2024-02-28T12:49:51;15.02;;;10.65;;
47772;SDS011;33534;51.028;13.716;2024-02-28T12:52:16;14.18;;;10.13;;
47772;SDS011;33534;51.028;13.716;2024-02-28T12:54:43;13.63;;;9.65;;
47772;SDS011;33534;51.028;13.716;2024-02-28T12:57:08;14.98;;;10.02;;
47772;SDS011;33534;51.028;13.716;2024-02-28T12:59:34;14.85;;;10.02;;
47772;SDS011;33534;51.028;13.716;2024-02-28T13:02:00;12.38;;;8.82;;
47772;SDS011;33534;51.028;13.716;2024-02-28T13:04:25;14.15;;;9.27;;
47772;SDS011;33534;51.028;13.716;2024-02-28T13:06:53;13.70;;;9.48;;
47772;SDS011;33534;51.028;13.716;2024-02-28T13:09:18;15.35;;;9.93;;
47772;SDS011;33534;51.028;13.716;2024-02-28T13:11:45;14.35;;;9.38;;
47772;SDS011;33534;51.028;13.716;2024-02-28T13:14:10;14.07;;;9.15;;
47772;SDS011;33534;51.028;13.716;2024-02-28T13:16:36;16.63;;;9.88;;
47772;SDS011;33534;51.028;13.716;2024-02-28T13:19:02;13.25;;;8.90;;
47772;SDS011;33534;51.028;13.716;2024-02-28T13:21:29;13.77;;;9.15;;
47772;SDS011;33534;51.028;13.716;2024-02-28T13:23:57;13.63;;;9.43;;
47772;SDS011;33534;51.028;13.716;2024-02-28T13:26:23;13.98;;;8.88;;
47772;SDS011;33534;51.028;13.716;2024-02-28T13:28:49;12.63;;;8.80;;
47772;SDS011;33534;51.028;13.716;2024-02-28T13:31:15;12.98;;;8.98;;
47772;SDS011;33534;51.028;13.716;2024-02-28T13:33:41;13.18;;;8.45;;
47772;SDS011;33534;51.028;13.716;2024-02-28T13:36:07;13.10;;;9.18;;
47772;SDS011;33534;51.028;13.716;2024-02-28T13:38:33;12.30;;;8.98;;
47772;SDS011;33534;51.028;13.716;2024-02-28T13:40:58;12.98;;;8.98;;
47772;SDS011;33534;51.028;13.716;2024-02-28T13:43:24;13.75;;;9.25;;
47772;SDS011;33534;51.028;13.716;2024-02-28T13:45:50;11.80;;;7.95;;
47772;SDS011;33534;51.028;13.716;2024-02-28T13:50:49;10.73;;;8.13;;
47772;SDS011;33534;51.028;13.716;2024-02-28T13:53:15;12.18;;;8.60;;
47772;SDS011;33534;51.028;13.716;2024-02-28T13:55:41;12.45;;;8.77;;
47772;SDS011;33534;51.028;13.716;2024-02-28T13:58:08;11.57;;;8.07;;
47772;SDS011;33534;51.028;13.716;2024-02-28T14:00:35;10.52;;;7.45;;
47772;SDS011;33534;51.028;13.716;2024-02-28T14:03:02;11.15;;;8.10;;
47772;SDS011;33534;51.028;13.716;2024-02-28T14:05:28;11.85;;;8.00;;